Time;durP1;ratioP1;P1;durP2;ratioP2;P2;SDS_P1;SDS_P2;PMS_P1;PMS_P2;Temp;Humidity;BMP_temperature;BMP_pressure;BME280_temperature;BME280_humidity;BME280_pressure;Samples;Min_cycle;Max_cycle;Signal;HPM_P1;HPM_P2
2022/07/15 00:02:20;;;;;;;0.00;0.00;;;16.50;99.90;;;;;;5068117;28;20399;-67
2022/07/15 00:04:46;;;;;;;0.05;0.05;;;16.50;99.90;;;;;;5063739;28;20060;-67
2022/07/15 00:07:12;;;;;;;0.10;0.10;;;16.50;99.90;;;;;;5042678;28;20052;-66
2022/07/15 00:12:23;;;;;;;0.15;0.15;;;16.50;99.90;;;;;;5029478;28;20103;-66
2022/07/15 00:14:48;;;;;;;0.00;0.00;;;16.60;99.90;;;;;;5058318;28;20491;-67
2022/07/15 00:17:15;;;;;;;0.08;0.08;;;16.50;99.90;;;;;;5070497;28;20052;-66
2022/07/15 00:19:40;;;;;;;0.30;0.30;;;16.60;99.90;;;;;;5066306;28;20064;-66
2022/07/15 00:22:06;;;;;;;0.10;0.10;;;16.60;99.90;;;;;;5062952;28;20040;-67
2022/07/15 00:24:32;;;;;;;1.88;0.63;;;16.50;99.90;;;;;;5033883;28;20079;-67
2022/07/15 00:26:57;;;;;;;0.00;0.00;;;16.50;99.90;;;;;;5054203;28;20044;-66
2022/07/15 00:29:23;;;;;;;0.10;0.10;;;16.50;99.90;;;;;;5070760;28;20046;-66
2022/07/15 00:31:49;;;;;;;0.10;0.10;;;16.50;99.90;;;;;;5080383;28;20043;-66
2022/07/15 00:34:16;;;;;;;2.10;1.55;;;16.50;99.90;;;;;;5077392;28;20040;-66
2022/07/15 00:36:42;;;;;;;0.00;0.00;;;16.50;99.90;;;;;;5044264;28;20485;-67
2022/07/15 00:39:09;;;;;;;1.52;0.38;;;16.40;99.90;;;;;;5069589;28;20111;-66
2022/07/15 00:41:38;;;;;;;0.10;0.10;;;16.40;99.90;;;;;;5057840;28;20129;-66
2022/07/15 00:44:04;;;;;;;0.30;0.30;;;16.30;99.90;;;;;;5041483;28;20048;-66
2022/07/15 00:46:31;;;;;;;0.00;0.00;;;16.30;99.90;;;;;;5046505;28;20568;-67
2022/07/15 00:48:57;;;;;;;0.47;0.30;;;16.30;99.90;;;;;;5072352;28;20044;-66
2022/07/15 00:51:23;;;;;;;0.00;0.00;;;16.20;99.90;;;;;;5050431;28;20072;-67
2022/07/15 00:53:50;;;;;;;0.20;0.20;;;16.20;99.90;;;;;;5044347;28;20084;-66
2022/07/15 00:56:17;;;;;;;0.00;0.00;;;16.10;99.90;;;;;;5047077;28;20055;-67
2022/07/15 00:58:44;;;;;;;0.20;0.20;;;16.10;99.90;;;;;;5061877;28;20716;-67
2022/07/15 01:01:10;;;;;;;0.00;0.00;;;16.00;99.90;;;;;;5056874;28;20167;-67
2022/07/15 01:03:37;;;;;;;0.00;0.00;;;15.90;99.90;;;;;;5084319;28;20458;-67
2022/07/15 01:06:03;;;;;;;1.80;1.35;;;15.90;99.90;;;;;;5073145;28;20052;-67
2022/07/15 01:08:28;;;;;;;0.10;0.10;;;15.90;99.90;;;;;;5078371;28;20120;-66
2022/07/15 01:10:55;;;;;;;0.05;0.05;;;15.90;99.90;;;;;;5064252;28;20131;-67
2022/07/15 01:13:21;;;;;;;0.00;0.00;;;15.80;99.90;;;;;;5076095;28;20090;-68
2022/07/15 01:15:48;;;;;;;0.00;0.00;;;15.70;99.90;;;;;;5062582;28;20488;-67
2022/07/15 01:18:15;;;;;;;0.00;0.00;;;15.80;99.90;;;;;;5068744;28;20111;-67
2022/07/15 01:20:42;;;;;;;0.05;0.05;;;15.80;99.90;;;;;;5066554;28;20135;-67
2022/07/15 01:23:07;;;;;;;0.10;0.10;;;15.80;99.90;;;;;;5063289;28;20459;-66
2022/07/15 01:25:33;;;;;;;0.00;0.00;;;15.80;99.90;;;;;;5070790;28;20039;-68
2022/07/15 01:27:59;;;;;;;0.10;0.10;;;15.70;99.90;;;;;;5057178;28;20531;-68
2022/07/15 01:30:25;;;;;;;0.00;0.00;;;15.70;99.90;;;;;;5071671;28;20070;-66
2022/07/15 01:32:51;;;;;;;0.00;0.00;;;15.60;99.90;;;;;;5063666;28;20032;-67
2022/07/15 01:35:17;;;;;;;0.10;0.10;;;15.60;99.90;;;;;;5055697;28;20047;-70
2022/07/15 01:37:44;;;;;;;0.00;0.00;;;15.50;99.90;;;;;;5051550;28;20041;-70
2022/07/15 01:40:10;;;;;;;0.10;0.10;;;15.50;99.90;;;;;;5045430;28;20044;-70
2022/07/15 01:42:37;;;;;;;0.00;0.00;;;15.40;99.90;;;;;;5064845;28;20044;-69
2022/07/15 01:45:05;;;;;;;0.00;0.00;;;15.30;99.90;;;;;;5070266;28;20136;-70
2022/07/15 01:47:32;;;;;;;0.10;0.10;;;15.30;99.90;;;;;;5042398;28;20496;-69
2022/07/15 01:49:58;;;;;;;0.10;0.10;;;15.30;99.90;;;;;;5065681;28;20450;-68
2022/07/15 01:52:24;;;;;;;0.08;0.08;;;15.20;99.90;;;;;;5040506;28;20433;-69
2022/07/15 01:54:50;;;;;;;0.10;0.10;;;15.10;99.90;;;;;;5059847;28;20115;-68
2022/07/15 01:57:16;;;;;;;0.00;0.00;;;15.10;99.90;;;;;;5077302;28;20111;-68
2022/07/15 01:59:41;;;;;;;0.00;0.00;;;15.00;99.90;;;;;;5060656;28;20053;-68
2022/07/15 02:02:07;;;;;;;0.10;0.10;;;15.00;99.90;;;;;;5058910;28;20042;-68
2022/07/15 02:04:33;;;;;;;0.13;0.13;;;14.90;99.90;;;;;;5040765;28;20091;-68
2022/07/15 02:06:58;;;;;;;0.10;0.10;;;14.90;99.90;;;;;;5059499;28;20063;-68
2022/07/15 02:09:24;;;;;;;0.00;0.00;;;14.80;99.90;;;;;;5066116;28;20044;-68
2022/07/15 02:11:49;;;;;;;0.10;0.10;;;14.80;99.90;;;;;;5084524;28;20109;-68
2022/07/15 02:14:15;;;;;;;0.28;0.28;;;14.80;99.90;;;;;;5067230;28;20507;-69
2022/07/15 02:16:41;;;;;;;0.10;0.10;;;14.80;99.90;;;;;;5068314;28;20040;-68
2022/07/15 02:19:08;;;;;;;0.00;0.00;;;14.70;99.90;;;;;;5062294;28;20040;-68
2022/07/15 02:21:34;;;;;;;0.10;0.10;;;14.70;99.90;;;;;;5049713;28;20048;-68
2022/07/15 02:24:00;;;;;;;0.10;0.10;;;14.70;99.90;;;;;;5044794;28;20048;-69
2022/07/15 02:26:26;;;;;;;0.10;0.10;;;14.60;99.90;;;;;;5074761;28;20055;-68
2022/07/15 02:28:52;;;;;;;0.10;0.10;;;14.60;99.90;;;;;;5080193;28;20528;-68
2022/07/15 02:31:17;;;;;;;0.10;0.10;;;14.70;99.90;;;;;;5066533;28;20508;-68
2022/07/15 02:33:43;;;;;;;0.10;0.10;;;14.60;99.90;;;;;;5068581;28;20157;-68
2022/07/15 02:36:09;;;;;;;0.15;0.15;;;14.60;99.90;;;;;;5080943;28;20177;-68
2022/07/15 02:38:35;;;;;;;0.08;0.08;;;14.50;99.90;;;;;;5068333;28;20036;-68
2022/07/15 02:41:00;;;;;;;0.00;0.00;;;14.50;99.90;;;;;;5046956;28;20464;-68
2022/07/15 02:43:26;;;;;;;0.03;0.03;;;14.60;99.90;;;;;;5058055;28;20116;-69
2022/07/15 02:45:52;;;;;;;0.05;0.05;;;14.50;99.90;;;;;;5082096;28;20518;-68
2022/07/15 02:48:17;;;;;;;0.00;0.00;;;14.60;99.90;;;;;;5076017;28;20059;-68
2022/07/15 02:50:43;;;;;;;0.00;0.00;;;14.60;99.90;;;;;;5045198;28;20060;-68
2022/07/15 02:53:08;;;;;;;0.22;0.22;;;14.60;99.90;;;;;;5052174;28;20476;-68
2022/07/15 02:55:34;;;;;;;0.00;0.00;;;14.50;99.90;;;;;;5074163;28;20469;-68
2022/07/15 02:58:00;;;;;;;0.08;0.08;;;14.50;99.90;;;;;;5067835;28;20076;-69
2022/07/15 03:00:26;;;;;;;0.00;0.00;;;14.40;99.90;;;;;;5066834;28;20040;-69
2022/07/15 03:02:52;;;;;;;0.10;0.10;;;14.40;99.90;;;;;;5071311;28;20055;-68
2022/07/15 03:05:18;;;;;;;0.10;0.10;;;14.50;99.90;;;;;;5075533;28;20119;-68
2022/07/15 03:07:44;;;;;;;0.10;0.10;;;14.40;99.90;;;;;;5088754;28;20535;-68
2022/07/15 03:10:10;;;;;;;1.58;0.93;;;14.30;99.90;;;;;;5067443;28;20585;-68
2022/07/15 03:12:36;;;;;;;0.10;0.10;;;14.30;99.90;;;;;;5059842;28;20086;-68
2022/07/15 03:15:02;;;;;;;0.00;0.00;;;14.40;99.90;;;;;;5058494;28;20086;-68
2022/07/15 03:17:28;;;;;;;0.00;0.00;;;14.30;99.90;;;;;;5060154;28;20050;-69
2022/07/15 03:19:56;;;;;;;0.08;0.08;;;14.30;99.90;;;;;;5047517;28;20120;-68
2022/07/15 03:22:23;;;;;;;0.10;0.05;;;14.30;99.90;;;;;;5063453;28;20135;-68
2022/07/15 03:24:49;;;;;;;0.10;0.10;;;14.20;99.90;;;;;;5067815;28;20475;-69
2022/07/15 03:27:16;;;;;;;0.10;0.10;;;14.20;99.90;;;;;;5058631;28;20051;-68
2022/07/15 03:29:42;;;;;;;0.10;0.10;;;14.20;99.90;;;;;;5074258;28;20055;-68
2022/07/15 03:32:08;;;;;;;0.00;0.00;;;14.20;99.90;;;;;;5068298;28;20556;-68
2022/07/15 03:34:33;;;;;;;0.08;0.08;;;14.10;99.90;;;;;;5065064;28;20048;-68
2022/07/15 03:36:59;;;;;;;0.10;0.10;;;14.10;99.90;;;;;;5067195;28;20052;-68
2022/07/15 03:39:24;;;;;;;0.10;0.10;;;14.10;99.90;;;;;;5069556;28;20139;-68
2022/07/15 03:41:50;;;;;;;0.00;0.00;;;14.10;99.90;;;;;;5059964;28;20577;-68
2022/07/15 03:44:17;;;;;;;0.10;0.10;;;14.00;99.90;;;;;;5065258;28;20067;-68
2022/07/15 03:46:45;;;;;;;0.10;0.10;;;14.10;99.90;;;;;;5086232;28;20040;-68
2022/07/15 03:49:11;;;;;;;0.00;0.00;;;14.00;99.90;;;;;;5086969;28;20055;-68
2022/07/15 03:51:37;;;;;;;0.10;0.10;;;14.00;99.90;;;;;;5087581;28;20115;-68
2022/07/15 03:54:03;;;;;;;0.10;0.10;;;14.00;99.90;;;;;;5077817;28;20511;-68
2022/07/15 03:56:29;;;;;;;0.10;0.10;;;14.00;99.90;;;;;;5087967;28;20146;-68
2022/07/15 03:58:55;;;;;;;0.10;0.10;;;14.00;99.90;;;;;;5084937;28;20051;-68
2022/07/15 04:01:22;;;;;;;0.10;0.10;;;14.00;99.90;;;;;;5076602;28;20044;-68
2022/07/15 04:03:48;;;;;;;0.03;0.03;;;14.00;99.90;;;;;;5067267;28;20105;-68
2022/07/15 04:06:15;;;;;;;0.10;0.10;;;14.00;99.90;;;;;;5051082;28;20071;-68
2022/07/15 04:08:41;;;;;;;0.10;0.10;;;14.10;99.90;;;;;;5056528;28;20450;-68
2022/07/15 04:11:07;;;;;;;0.47;0.40;;;14.10;99.90;;;;;;5086505;28;20047;-68
2022/07/15 04:13:32;;;;;;;0.00;0.00;;;14.10;99.90;;;;;;5072741;28;20415;-66
2022/07/15 04:15:58;;;;;;;1.15;0.75;;;14.20;99.90;;;;;;5057273;28;20439;-67
2022/07/15 04:18:23;;;;;;;0.10;0.10;;;14.20;99.90;;;;;;5054298;28;20035;-67
2022/07/15 04:20:49;;;;;;;0.10;0.10;;;14.20;99.90;;;;;;5071999;28;20048;-67
2022/07/15 04:23:15;;;;;;;0.00;0.00;;;14.20;99.90;;;;;;5070614;28;20073;-67
2022/07/15 04:25:41;;;;;;;0.00;0.00;;;14.30;99.90;;;;;;5053473;28;20407;-67
2022/07/15 04:28:07;;;;;;;0.10;0.10;;;14.40;99.90;;;;;;5049889;28;20040;-66
2022/07/15 04:30:32;;;;;;;0.10;0.10;;;14.30;99.90;;;;;;5090092;28;20043;-67
2022/07/15 04:32:58;;;;;;;0.10;0.10;;;14.40;99.90;;;;;;5058614;28;20065;-67
2022/07/15 04:35:23;;;;;;;0.10;0.10;;;14.30;99.90;;;;;;5063660;28;20463;-66
2022/07/15 04:37:49;;;;;;;0.20;0.20;;;14.40;99.90;;;;;;5074929;28;20045;-68
2022/07/15 04:40:15;;;;;;;0.00;0.00;;;14.50;99.90;;;;;;5077927;28;20044;-68
2022/07/15 04:42:40;;;;;;;0.10;0.10;;;14.50;99.90;;;;;;5062017;28;20129;-68
2022/07/15 04:45:06;;;;;;;0.08;0.08;;;14.60;99.90;;;;;;5068152;28;20052;-68
2022/07/15 04:47:32;;;;;;;0.10;0.10;;;14.70;99.90;;;;;;5057467;28;20052;-68
2022/07/15 04:52:46;;;;;;;0.03;0.03;;;14.80;99.90;;;;;;5052426;28;20056;-68
2022/07/15 04:55:12;;;;;;;0.10;0.10;;;14.80;99.90;;;;;;5075765;28;20083;-67
2022/07/15 04:57:38;;;;;;;0.10;0.10;;;14.90;99.90;;;;;;5083097;28;20305;-68
2022/07/15 05:00:05;;;;;;;0.10;0.10;;;14.90;99.90;;;;;;5064429;28;20544;-67
2022/07/15 05:02:31;;;;;;;0.08;0.08;;;15.00;99.90;;;;;;5053643;28;20482;-68
2022/07/15 05:04:57;;;;;;;0.10;0.10;;;15.00;99.90;;;;;;5079731;28;20376;-68
2022/07/15 05:07:23;;;;;;;0.10;0.10;;;15.00;99.90;;;;;;5062919;28;20056;-68
2022/07/15 05:09:48;;;;;;;0.10;0.10;;;15.00;99.90;;;;;;5059719;28;20033;-68
2022/07/15 05:12:15;;;;;;;0.10;0.10;;;15.10;99.90;;;;;;5051176;28;20071;-68
2022/07/15 05:14:40;;;;;;;0.10;0.10;;;15.10;99.90;;;;;;5054695;28;20477;-68
2022/07/15 05:17:10;;;;;;;0.10;0.10;;;15.10;99.90;;;;;;5047607;28;20040;-68
2022/07/15 05:19:35;;;;;;;0.10;0.10;;;15.10;99.90;;;;;;5089482;28;20052;-68
2022/07/15 05:22:01;;;;;;;0.00;0.00;;;15.20;99.90;;;;;;5089123;28;20051;-68
2022/07/15 05:24:27;;;;;;;0.10;0.10;;;15.20;99.90;;;;;;5090616;28;20564;-68
2022/07/15 05:26:52;;;;;;;0.10;0.10;;;15.20;99.90;;;;;;5076431;28;20063;-68
2022/07/15 05:29:21;;;;;;;0.08;0.08;;;15.20;99.90;;;;;;5068877;28;20044;-68
2022/07/15 05:31:48;;;;;;;0.10;0.10;;;15.30;99.90;;;;;;5059301;28;20052;-68
2022/07/15 05:34:14;;;;;;;0.00;0.00;;;15.40;99.90;;;;;;5069408;28;20071;-68
2022/07/15 05:36:39;;;;;;;0.05;0.05;;;15.50;99.90;;;;;;5072479;28;20113;-68
2022/07/15 05:39:05;;;;;;;0.10;0.10;;;15.60;99.90;;;;;;5061916;28;20041;-68
2022/07/15 05:41:33;;;;;;;0.10;0.10;;;15.70;99.90;;;;;;5053448;28;20060;-67
2022/07/15 05:44:00;;;;;;;0.10;0.10;;;15.80;99.90;;;;;;5072873;28;20112;-68
2022/07/15 05:46:26;;;;;;;0.10;0.10;;;15.90;99.90;;;;;;5068060;28;20760;-68
2022/07/15 05:48:52;;;;;;;0.10;0.10;;;15.90;99.90;;;;;;5069420;28;20141;-68
2022/07/15 05:51:18;;;;;;;0.25;0.25;;;15.90;99.90;;;;;;5061885;28;20048;-68
2022/07/15 05:53:43;;;;;;;0.00;0.00;;;16.10;99.90;;;;;;5090374;28;20059;-68
2022/07/15 05:56:09;;;;;;;0.00;0.00;;;16.10;99.90;;;;;;5049592;28;20048;-67
2022/07/15 05:58:35;;;;;;;0.10;0.10;;;16.20;99.90;;;;;;5059507;28;20048;-68
2022/07/15 06:01:01;;;;;;;0.00;0.00;;;16.20;99.90;;;;;;5065680;28;20138;-68
2022/07/15 06:03:26;;;;;;;0.10;0.10;;;16.30;99.90;;;;;;5068809;28;20508;-68
2022/07/15 06:05:52;;;;;;;0.10;0.10;;;16.30;99.90;;;;;;5069350;28;20056;-68
2022/07/15 06:08:17;;;;;;;0.10;0.10;;;16.40;99.90;;;;;;5078665;28;20045;-68
2022/07/15 06:10:43;;;;;;;0.10;0.10;;;16.40;99.90;;;;;;5069383;28;20048;-68
2022/07/15 06:13:09;;;;;;;0.10;0.10;;;16.40;99.90;;;;;;5063408;28;20048;-68
2022/07/15 06:15:34;;;;;;;0.00;0.00;;;16.40;99.90;;;;;;5074968;28;20048;-68
2022/07/15 06:18:01;;;;;;;0.00;0.00;;;16.40;99.90;;;;;;5049417;28;20669;-68
2022/07/15 06:20:26;;;;;;;0.30;0.30;;;16.40;99.90;;;;;;5062705;28;20040;-68
2022/07/15 06:22:52;;;;;;;0.03;0.03;;;16.30;99.90;;;;;;5086221;28;20122;-68
2022/07/15 06:25:18;;;;;;;0.00;0.00;;;16.30;99.90;;;;;;5085707;28;20177;-67
2022/07/15 06:27:43;;;;;;;0.10;0.10;;;16.40;99.90;;;;;;5069524;28;20079;-68
2022/07/15 06:30:10;;;;;;;0.00;0.00;;;16.50;99.90;;;;;;5066109;28;20041;-68
2022/07/15 06:32:36;;;;;;;0.00;0.00;;;16.50;99.90;;;;;;5081842;28;20040;-68
2022/07/15 06:35:01;;;;;;;0.00;0.00;;;16.60;99.90;;;;;;5062589;28;20063;-68
2022/07/15 06:37:27;;;;;;;0.00;0.00;;;16.60;99.90;;;;;;5076343;28;20441;-68
2022/07/15 06:39:54;;;;;;;0.10;0.10;;;16.70;99.90;;;;;;5069659;28;20033;-68
2022/07/15 06:42:21;;;;;;;0.00;0.00;;;16.80;99.90;;;;;;5061061;28;20040;-68
2022/07/15 06:44:46;;;;;;;0.10;0.10;;;16.80;99.90;;;;;;5067047;28;20047;-68
2022/07/15 06:47:12;;;;;;;0.00;0.00;;;16.90;99.90;;;;;;5074227;28;20131;-68
2022/07/15 06:49:38;;;;;;;0.10;0.10;;;16.80;99.90;;;;;;5089025;28;20557;-68
2022/07/15 06:52:04;;;;;;;0.00;0.00;;;16.80;99.90;;;;;;5072029;28;20555;-68
2022/07/15 06:54:30;;;;;;;0.10;0.10;;;16.80;99.90;;;;;;5073111;28;20048;-68
2022/07/15 06:56:56;;;;;;;0.08;0.08;;;16.70;99.90;;;;;;5068539;28;20491;-68
2022/07/15 06:59:22;;;;;;;0.10;0.10;;;16.70;99.90;;;;;;5049793;28;20067;-68
2022/07/15 07:01:48;;;;;;;0.10;0.10;;;16.70;99.90;;;;;;5063302;28;20086;-68
2022/07/15 07:04:13;;;;;;;0.10;0.10;;;16.80;99.90;;;;;;5068234;28;20052;-68
2022/07/15 07:06:39;;;;;;;0.10;0.10;;;16.90;99.90;;;;;;5068390;28;20106;-68
2022/07/15 07:09:05;;;;;;;0.03;0.03;;;17.10;99.90;;;;;;5085793;28;20044;-68
2022/07/15 07:11:30;;;;;;;0.05;0.05;;;17.30;99.90;;;;;;5088792;28;20086;-68
2022/07/15 07:13:56;;;;;;;0.10;0.10;;;17.40;99.90;;;;;;5074574;28;20036;-68
2022/07/15 07:16:22;;;;;;;0.10;0.10;;;17.50;99.90;;;;;;5056215;28;20049;-68
2022/07/15 07:18:50;;;;;;;0.10;0.10;;;17.50;99.90;;;;;;5080773;28;20053;-68
2022/07/15 07:21:16;;;;;;;0.08;0.08;;;17.50;99.90;;;;;;5088583;28;20062;-68
2022/07/15 07:23:41;;;;;;;0.10;0.10;;;17.60;99.90;;;;;;5070001;28;20594;-68
2022/07/15 07:26:09;;;;;;;0.00;0.00;;;17.70;99.90;;;;;;5070373;28;20411;-68
2022/07/15 07:28:35;;;;;;;0.00;0.00;;;17.70;99.90;;;;;;5069503;28;20044;-68
2022/07/15 07:31:01;;;;;;;0.00;0.00;;;17.60;99.90;;;;;;5069116;28;20127;-68
2022/07/15 07:33:27;;;;;;;0.13;0.13;;;17.70;99.90;;;;;;5088451;28;20126;-68
2022/07/15 07:35:53;;;;;;;0.10;0.10;;;17.70;99.90;;;;;;5087206;28;20630;-68
2022/07/15 07:38:20;;;;;;;0.10;0.10;;;17.80;99.90;;;;;;5087994;28;20040;-68
2022/07/15 07:40:48;;;;;;;0.00;0.00;;;17.80;99.90;;;;;;5088842;28;20047;-68
2022/07/15 07:43:15;;;;;;;0.00;0.00;;;17.90;99.90;;;;;;5065177;28;20595;-68
2022/07/15 07:45:41;;;;;;;0.10;0.10;;;18.00;99.90;;;;;;5075652;28;20372;-68
2022/07/15 07:48:08;;;;;;;0.00;0.00;;;18.10;99.90;;;;;;5070428;28;20043;-68
2022/07/15 07:50:34;;;;;;;0.05;0.05;;;18.10;99.90;;;;;;5084925;28;20380;-68
2022/07/15 07:52:59;;;;;;;0.15;0.15;;;18.10;99.90;;;;;;5088425;28;20051;-68
2022/07/15 07:55:25;;;;;;;0.00;0.00;;;18.00;99.90;;;;;;5069034;28;20495;-68
2022/07/15 07:57:56;;;;;;;0.00;0.00;;;18.00;99.90;;;;;;5088147;28;20502;-68
2022/07/15 08:00:24;;;;;;;0.08;0.08;;;18.10;99.90;;;;;;5088087;28;20573;-68
2022/07/15 08:02:50;;;;;;;0.00;0.00;;;18.10;99.90;;;;;;5074623;28;20091;-68
2022/07/15 08:05:17;;;;;;;0.00;0.00;;;18.20;99.90;;;;;;5089686;28;20066;-68
2022/07/15 08:07:42;;;;;;;0.00;0.00;;;18.30;99.90;;;;;;5092770;28;20079;-68
2022/07/15 08:10:11;;;;;;;0.10;0.10;;;18.30;99.90;;;;;;5053822;28;20037;-68
2022/07/15 08:12:38;;;;;;;0.00;0.00;;;18.30;99.90;;;;;;5050427;28;20753;-68
2022/07/15 08:15:10;;;;;;;0.00;0.00;;;18.20;99.90;;;;;;5071747;28;20044;-68
2022/07/15 08:17:40;;;;;;;0.00;0.00;;;18.10;99.90;;;;;;5076104;28;20112;-68
2022/07/15 08:20:09;;;;;;;0.05;0.05;;;18.10;99.90;;;;;;5091822;28;20044;-68
2022/07/15 08:22:36;;;;;;;0.00;0.00;;;18.10;99.90;;;;;;5091235;28;20070;-69
2022/07/15 08:25:02;;;;;;;0.10;0.10;;;18.20;99.90;;;;;;5091333;28;20696;-68
2022/07/15 08:27:27;;;;;;;0.10;0.10;;;18.30;99.90;;;;;;5085447;28;20045;-68
2022/07/15 08:29:53;;;;;;;0.10;0.10;;;18.40;99.90;;;;;;5092158;28;20105;-68
2022/07/15 08:32:19;;;;;;;0.10;0.10;;;18.50;99.90;;;;;;5090927;28;20102;-68
2022/07/15 08:34:47;;;;;;;0.10;0.10;;;18.50;99.90;;;;;;5091007;28;20044;-68
2022/07/15 08:37:13;;;;;;;0.00;0.00;;;18.60;99.90;;;;;;5091383;28;20474;-68
2022/07/15 08:39:38;;;;;;;0.00;0.00;;;18.70;99.90;;;;;;5072794;28;20298;-68
2022/07/15 08:42:04;;;;;;;0.08;0.08;;;18.70;99.90;;;;;;5060860;28;20123;-68
2022/07/15 08:44:30;;;;;;;0.00;0.00;;;18.70;99.90;;;;;;5085572;28;20452;-69
2022/07/15 08:47:02;;;;;;;0.00;0.00;;;18.90;99.90;;;;;;5091032;28;20036;-68
2022/07/15 08:49:29;;;;;;;0.10;0.10;;;19.00;99.90;;;;;;5089227;28;20063;-69
2022/07/15 08:51:57;;;;;;;0.00;0.00;;;19.00;99.90;;;;;;5070896;28;20116;-69
2022/07/15 08:54:23;;;;;;;0.10;0.10;;;19.10;99.90;;;;;;5081321;28;20101;-68
2022/07/15 08:56:49;;;;;;;0.00;0.00;;;19.10;99.90;;;;;;5073269;28;20060;-68
2022/07/15 08:59:14;;;;;;;24.55;1.05;;;19.20;99.90;;;;;;5090245;28;20130;-68
2022/07/15 09:01:50;;;;;;;0.00;0.00;;;19.30;99.90;;;;;;5090984;28;20047;-68
2022/07/15 09:04:17;;;;;;;0.00;0.00;;;19.20;99.90;;;;;;5088036;28;20048;-69
2022/07/15 09:06:47;;;;;;;0.10;0.10;;;19.20;99.90;;;;;;5091138;28;20401;-69
2022/07/15 09:09:34;;;;;;;0.00;0.00;;;19.20;99.90;;;;;;5090227;28;20051;-68
2022/07/15 09:12:11;;;;;;;0.00;0.00;;;19.40;99.90;;;;;;5087582;28;20059;-69
2022/07/15 09:14:39;;;;;;;0.20;0.20;;;19.30;99.90;;;;;;5090479;28;20036;-68
2022/07/15 09:17:10;;;;;;;0.00;0.00;;;19.10;99.90;;;;;;5069420;28;20102;-68
2022/07/15 09:20:07;;;;;;;0.00;0.00;;;19.20;99.90;;;;;;5082391;28;20127;-68
2022/07/15 09:22:51;;;;;;;0.03;0.03;;;19.10;99.90;;;;;;5090187;28;20116;-68
2022/07/15 09:25:17;;;;;;;0.20;0.20;;;18.90;99.90;;;;;;5071445;28;20083;-68
2022/07/15 09:27:44;;;;;;;0.00;0.00;;;19.00;99.90;;;;;;5090573;28;20549;-68
2022/07/15 09:33:40;;;;;;;0.00;0.00;;;19.30;99.90;;;;;;5084347;28;20048;-67
2022/07/15 09:36:08;;;;;;;0.15;0.15;;;19.40;99.90;;;;;;5089829;28;20060;-67
2022/07/15 09:38:49;;;;;;;0.00;0.00;;;19.40;99.90;;;;;;5072717;28;20126;-68
2022/07/15 09:41:41;;;;;;;0.00;0.00;;;19.30;99.90;;;;;;5087982;28;20718;-68
2022/07/15 09:44:14;;;;;;;0.00;0.00;;;19.30;99.90;;;;;;5085371;28;20055;-68
2022/07/15 09:46:53;;;;;;;0.00;0.00;;;19.50;99.90;;;;;;5090232;28;20055;-67
2022/07/15 09:49:24;;;;;;;0.00;0.00;;;19.60;99.90;;;;;;5060520;28;20484;-68
2022/07/15 09:51:54;;;;;;;0.00;0.00;;;20.10;99.90;;;;;;5069533;28;20044;-68
2022/07/15 09:54:23;;;;;;;0.20;0.20;;;20.50;99.90;;;;;;5089392;28;20093;-67
2022/07/15 09:56:50;;;;;;;0.00;0.00;;;20.80;99.90;;;;;;5071640;28;20480;-68
2022/07/15 09:59:17;;;;;;;0.10;0.10;;;20.90;99.90;;;;;;5090189;28;20094;-68
2022/07/15 10:01:43;;;;;;;0.22;0.22;;;21.00;99.90;;;;;;5088134;28;20510;-67
2022/07/15 10:04:10;;;;;;;0.00;0.00;;;21.10;99.90;;;;;;5088954;28;20048;-68
2022/07/15 10:06:38;;;;;;;0.10;0.10;;;21.10;99.90;;;;;;5088989;28;20044;-68
2022/07/15 10:09:05;;;;;;;0.45;0.22;;;21.20;99.90;;;;;;5063941;28;20058;-68
2022/07/15 10:11:40;;;;;;;0.00;0.00;;;21.00;99.90;;;;;;5068898;28;20094;-68
2022/07/15 10:14:33;;;;;;;0.00;0.00;;;20.90;99.90;;;;;;5064529;28;20032;-68
2022/07/15 10:17:08;;;;;;;0.00;0.00;;;20.70;99.90;;;;;;5053185;28;20132;-68
2022/07/15 10:19:40;;;;;;;0.10;0.10;;;20.50;99.90;;;;;;5051152;28;20394;-68
2022/07/15 10:22:28;;;;;;;0.10;0.10;;;20.50;99.90;;;;;;5068892;28;20598;-68
2022/07/15 10:25:17;;;;;;;0.00;0.00;;;20.30;99.90;;;;;;5069209;28;20049;-68
2022/07/15 10:28:18;;;;;;;0.10;0.10;;;20.30;99.90;;;;;;5051915;28;20087;-68
2022/07/15 10:30:44;;;;;;;0.00;0.00;;;20.70;99.90;;;;;;5050400;28;20671;-68
2022/07/15 10:33:16;;;;;;;0.00;0.00;;;21.00;99.90;;;;;;5088146;28;20086;-68
2022/07/15 10:35:43;;;;;;;0.00;0.00;;;21.10;99.90;;;;;;5089289;28;20080;-68
2022/07/15 10:38:23;;;;;;;0.08;0.08;;;20.70;99.90;;;;;;5089243;28;20042;-67
2022/07/15 10:41:14;;;;;;;0.00;0.00;;;20.50;99.90;;;;;;5088345;28;20127;-68
2022/07/15 10:43:46;;;;;;;0.00;0.00;;;20.30;99.90;;;;;;5076272;28;20123;-68
2022/07/15 10:46:17;;;;;;;4.00;1.08;;;20.50;99.90;;;;;;5048309;28;20045;-68
2022/07/15 10:49:12;;;;;;;0.00;0.00;;;20.70;99.90;;;;;;5031004;28;20515;-67
2022/07/15 10:51:37;;;;;;;0.00;0.00;;;21.00;99.90;;;;;;5067060;28;20724;-68
2022/07/15 10:54:29;;;;;;;0.30;0.30;;;21.30;99.90;;;;;;5050394;28;20064;-68
2022/07/15 10:56:55;;;;;;;0.00;0.00;;;21.20;99.90;;;;;;5062475;28;20040;-68
2022/07/15 10:59:26;;;;;;;0.00;0.00;;;21.00;99.90;;;;;;5064165;28;20056;-68
2022/07/15 11:02:00;;;;;;;0.00;0.00;;;20.90;99.90;;;;;;5071060;28;20056;-67
2022/07/15 11:04:28;;;;;;;0.00;0.00;;;21.00;99.90;;;;;;5088691;28;20142;-67
2022/07/15 11:07:04;;;;;;;0.00;0.00;;;21.10;99.90;;;;;;5077925;28;20056;-68
2022/07/15 11:09:50;;;;;;;0.10;0.10;;;21.50;99.90;;;;;;5068592;28;20044;-68
2022/07/15 11:12:19;;;;;;;0.00;0.00;;;21.40;99.90;;;;;;5061842;28;20370;-68
2022/07/15 11:14:50;;;;;;;0.00;0.00;;;21.10;99.90;;;;;;5063806;28;20079;-68
2022/07/15 11:17:20;;;;;;;0.10;0.10;;;20.80;99.90;;;;;;5050021;28;20064;-68
2022/07/15 11:20:19;;;;;;;0.00;0.00;;;20.60;99.90;;;;;;5048709;28;20068;-68
2022/07/15 11:22:48;;;;;;;0.75;0.45;;;21.00;99.90;;;;;;5067398;28;20048;-68
2022/07/15 11:25:25;;;;;;;0.00;0.00;;;21.30;99.90;;;;;;5050376;28;20042;-68
2022/07/15 11:28:11;;;;;;;0.00;0.00;;;21.80;99.90;;;;;;5078033;28;20043;-68
2022/07/15 11:30:47;;;;;;;0.00;0.00;;;21.80;99.90;;;;;;5088396;28;20555;-68
2022/07/15 11:33:15;;;;;;;0.00;0.00;;;21.50;99.90;;;;;;5083404;28;20040;-70
2022/07/15 11:35:50;;;;;;;0.00;0.00;;;21.30;99.90;;;;;;5043827;28;20139;-68
2022/07/15 11:38:18;;;;;;;0.00;0.00;;;21.10;99.90;;;;;;5048930;28;20043;-68
2022/07/15 11:46:21;;;;;;;0.10;0.10;;;22.10;99.90;;;;;;5064974;28;20045;-68
2022/07/15 11:48:47;;;;;;;0.00;0.00;;;22.30;99.90;;;;;;5064541;28;20032;-68
2022/07/15 11:51:12;;;;;;;0.00;0.00;;;22.10;99.90;;;;;;5050991;28;20494;-68
2022/07/15 11:53:43;;;;;;;0.00;0.00;;;21.80;99.90;;;;;;5086933;28;20040;-68
2022/07/15 11:56:11;;;;;;;0.10;0.10;;;21.70;99.90;;;;;;5087422;28;20127;-68
2022/07/15 11:58:44;;;;;;;0.47;0.47;;;21.70;99.90;;;;;;5071085;28;20056;-68
2022/07/15 12:01:14;;;;;;;;;;;21.80;99.90;;;;;;5072645;28;20100;-68
2022/07/15 12:03:41;;;;;;;0.00;0.00;;;21.60;99.90;;;;;;5078848;28;19971;-68
2022/07/15 12:06:10;;;;;;;0.00;0.00;;;21.50;99.90;;;;;;5069821;28;20060;-68
2022/07/15 12:08:39;;;;;;;0.20;0.20;;;21.30;99.90;;;;;;5086818;28;20509;-68
2022/07/15 12:11:32;;;;;;;0.00;0.00;;;21.10;99.90;;;;;;5069203;28;20048;-68
2022/07/15 12:14:01;;;;;;;4.07;0.10;;;21.00;99.90;;;;;;5083295;28;20091;-68
2022/07/15 12:16:34;;;;;;;0.00;0.00;;;20.90;99.90;;;;;;5077215;28;20033;-68
2022/07/15 12:19:07;;;;;;;0.00;0.00;;;21.00;99.90;;;;;;5056333;28;20102;-68
2022/07/15 12:21:35;;;;;;;0.00;0.00;;;21.10;99.90;;;;;;5047958;28;20369;-68
2022/07/15 12:24:18;;;;;;;0.10;0.10;;;21.20;99.90;;;;;;5084667;28;20052;-68
2022/07/15 12:26:49;;;;;;;0.80;0.32;;;21.40;99.90;;;;;;5088261;28;20072;-68
2022/07/15 12:29:17;;;;;;;0.40;0.40;;;22.10;99.90;;;;;;5069344;28;20063;-67
2022/07/15 12:31:50;;;;;;;0.00;0.00;;;22.00;99.90;;;;;;5085994;28;20040;-68
2022/07/15 12:34:15;;;;;;;;;;;21.90;99.90;;;;;;5081732;28;20515;-67
2022/07/15 12:36:41;;;;;;;0.00;0.00;;;21.60;99.90;;;;;;5070332;28;19980;-68
2022/07/15 12:39:18;;;;;;;0.00;0.00;;;21.50;99.90;;;;;;5068825;28;20055;-68
2022/07/15 12:41:45;;;;;;;0.00;0.00;;;21.30;99.90;;;;;;5080524;28;20095;-68
2022/07/15 12:44:11;;;;;;;0.00;0.00;;;21.30;99.90;;;;;;5080625;28;20468;-68
2022/07/15 12:46:50;;;;;;;0.00;0.00;;;22.10;99.90;;;;;;5086960;28;20391;-67
2022/07/15 12:49:41;;;;;;;0.10;0.10;;;22.80;99.90;;;;;;5073143;28;20053;-68
2022/07/15 12:52:18;;;;;;;0.00;0.00;;;23.50;99.90;;;;;;5088399;28;20503;-68
2022/07/15 12:54:44;;;;;;;0.57;0.45;;;23.30;99.90;;;;;;5091531;28;20047;-68
2022/07/15 12:57:30;;;;;;;0.08;0.08;;;23.00;99.90;;;;;;5070329;28;20047;-68
2022/07/15 13:00:22;;;;;;;0.00;0.00;;;23.30;99.90;;;;;;5052858;28;20037;-68
2022/07/15 13:03:08;;;;;;;0.00;0.00;;;23.00;99.90;;;;;;5059439;28;20052;-68
2022/07/15 13:05:37;;;;;;;0.00;0.00;;;22.70;99.90;;;;;;5077443;28;20074;-67
2022/07/15 13:08:05;;;;;;;0.10;0.10;;;22.60;99.90;;;;;;5055602;28;20132;-68
2022/07/15 13:10:31;;;;;;;0.52;0.15;;;22.40;99.90;;;;;;5059124;28;20396;-67